North Bay Airport
CYYB : now visible

Airfield :











YOU CAN JOIN US ON...

 
LOGIN :

Register | Disclaimer

   EN    FR    IT 

 









Legend :    VFR   Marginal VFR   IFR   Intensive IFR   Very Intensive IFR
Visi :
Ceiling :
>= 8 km
>= 3000ft
5 to 8 km
1000 to 3000 ft
1500m to 5 km
500 to 1000 ft
800 to 1500m
200 to 500 ft
< 800m
< 200 ft
Symbols :   Thunderstorms  Fog  Heavy snow  Heavy precipitations  Wind > 20 kt






- Airport Elevation : 1215 ft
- IATA code : YYB


CYYB - North Bay

CURRENT METAR :
  • 120200Z 25009KT 15SM BKN040 M13/M16 A3021 RMK SC6 SLP262

EXPIRED METARs :
  • 120100Z 26007KT 15SM BKN045 M13/M16 A3019 RMK SC6 SLP256
  • 120000Z 27008KT 15SM FEW025 M14/M17 A3017 RMK SC2 SLP248

TAF TAF CYYB
Valid from the 12 at 02:00 until the 12 at 14:00 UTC


120144Z 1202/1214 26008KT P6SM FEW030
BECMG 1207/1209 30008KT RMK NXT FCST BY 120800Z



MET'MAP, your aeronautical weather chart ! - Copyright ORBIFLY December 2007 - Disclaimer

ORBIFLY MET'MAP TEAM :

Programming & Development : Alexandra Zaïnal
Concept & original design : Baudouin d'Aumeries
Assistance for programming : Marc-Olivier Méhu
Technical & hardware support : Manuel Goepfert

Contact : metmap@orbifly.com




SOURCES & CREDITS :

   NOAA       Earth
Advisory